Time;durP1;ratioP1;P1;durP2;ratioP2;P2;SDS_P1;SDS_P2;PMS_P1;PMS_P2;Temp;Humidity;BMP_temperature;BMP_pressure;BME280_temperature;BME280_humidity;BME280_pressure;Samples;Min_cycle;Max_cycle;Signal;HPM_P1;HPM_P2
2022/05/29 00:01:07;;;;;;;1999.90;999.90;;;;;;;14.66;47.17;95067.84;5009774;28;20030;-72
2022/05/29 00:03:32;;;;;;;1999.90;999.90;;;;;;;14.91;46.79;95093.53;5024220;22;20490;-72
2022/05/29 00:05:58;;;;;;;1999.90;999.90;;;;;;;14.70;46.73;95068.75;5010539;28;20024;-72
2022/05/29 00:08:27;;;;;;;1999.90;999.90;;;;;;;14.84;47.05;95093.28;5010335;28;20490;-72
2022/05/29 00:10:52;;;;;;;1999.90;999.90;;;;;;;14.44;46.77;95034.19;5010853;28;20025;-71
2022/05/29 00:13:18;;;;;;;1999.90;999.90;;;;;;;14.53;47.04;95070.44;5006038;28;20396;-74
2022/05/29 00:15:43;;;;;;;1999.90;999.90;;;;;;;14.65;47.23;95090.38;4990331;28;20041;-71
2022/05/29 00:18:09;;;;;;;1999.90;999.90;;;;;;;14.64;47.12;95086.91;4988760;28;20398;-71
2022/05/29 00:20:35;;;;;;;1999.90;999.90;;;;;;;14.49;47.51;95074.94;4991215;28;20686;-72
2022/05/29 00:23:01;;;;;;;1999.90;999.90;;;;;;;14.45;47.02;95052.56;4990950;28;20031;-72
2022/05/29 00:25:27;;;;;;;1999.90;999.90;;;;;;;14.53;47.20;95073.13;4990803;28;20026;-71
2022/05/29 00:27:52;;;;;;;1999.90;999.90;;;;;;;14.37;46.99;95040.06;4989552;28;20403;-71
2022/05/29 00:30:18;;;;;;;1999.90;999.90;;;;;;;13.93;46.82;94972.81;4989530;28;20476;-71
2022/05/29 00:32:43;;;;;;;1999.90;999.90;;;;;;;14.16;47.11;95031.28;4990180;28;20065;-72
2022/05/29 00:35:09;;;;;;;1999.90;999.90;;;;;;;13.50;47.42;94935.75;4990669;28;20033;-72
2022/05/29 00:37:38;;;;;;;1999.90;999.90;;;;;;;14.17;47.19;95041.66;4990868;28;20466;-71
2022/05/29 00:40:21;;;;;;;1999.90;999.90;;;;;;;14.10;47.07;95027.25;4989979;28;20038;-70
2022/05/29 00:42:46;;;;;;;1999.90;999.90;;;;;;;14.25;47.37;95058.75;4990771;28;20026;-71
2022/05/29 00:45:18;;;;;;;1999.90;999.90;;;;;;;14.24;47.19;95055.28;5003260;28;20042;-71
2022/05/29 00:47:44;;;;;;;1999.90;999.90;;;;;;;14.19;47.62;95046.69;4990790;28;20031;-72
2022/05/29 00:50:10;;;;;;;1999.90;999.90;;;;;;;14.20;47.75;95042.91;4989942;28;20033;-72
2022/05/29 00:52:36;;;;;;;1999.90;999.90;;;;;;;14.04;47.75;95035.47;4990758;28;20412;-72
2022/05/29 00:55:09;;;;;;;1999.90;999.90;;;;;;;14.11;48.19;95026.91;4990598;28;20038;-72
2022/05/29 00:57:39;;;;;;;1999.90;999.90;;;;;;;14.19;47.66;95031.41;4990754;28;20368;-72
2022/05/29 01:00:12;;;;;;;1999.90;999.90;;;;;;;14.03;47.70;95023.22;4988947;28;20038;-72
2022/05/29 01:02:38;;;;;;;1999.90;999.90;;;;;;;14.02;47.91;95015.50;4989062;28;20040;-72
2022/05/29 01:05:05;;;;;;;1999.90;999.90;;;;;;;13.99;48.02;95008.94;4990671;28;20097;-72
2022/05/29 01:07:31;;;;;;;1999.90;999.90;;;;;;;13.89;48.06;94998.66;4989244;28;20026;-72
2022/05/29 01:09:59;;;;;;;1999.90;999.90;;;;;;;13.83;48.09;94991.94;4990302;28;20065;-72
2022/05/29 01:12:52;;;;;;;1999.90;999.90;;;;;;;13.97;48.20;95015.72;4990641;28;20058;-72
2022/05/29 01:15:27;;;;;;;;;;;;;;;13.82;48.47;95008.28;4992049;28;20066;-72
2022/05/29 01:18:18;;;;;;;1999.90;999.90;;;;;;;13.76;48.81;95002.38;4990383;28;19920;-72
2022/05/29 01:21:03;;;;;;;1999.90;999.90;;;;;;;13.69;49.19;94996.78;4988930;28;20062;-72
2022/05/29 01:23:32;;;;;;;1999.90;999.90;;;;;;;13.55;49.39;94972.19;4988352;28;20045;-71
2022/05/29 01:26:19;;;;;;;1999.90;999.90;;;;;;;13.58;49.36;94985.69;4990216;28;20483;-71
2022/05/29 01:28:55;;;;;;;1999.90;999.90;;;;;;;13.54;49.44;94982.09;4989466;28;20153;-71
2022/05/29 01:31:53;;;;;;;1999.90;999.90;;;;;;;13.57;49.17;94975.34;4969625;28;20361;-72
2022/05/29 01:34:44;;;;;;;1999.90;999.90;;;;;;;13.52;49.25;94963.72;4968484;28;20051;-71
2022/05/29 01:37:32;;;;;;;1999.90;999.90;;;;;;;13.48;49.52;94960.16;4970769;28;20026;-72
2022/05/29 01:40:15;;;;;;;1999.90;999.90;;;;;;;13.44;49.67;94958.44;4970496;28;20073;-72
2022/05/29 01:42:49;;;;;;;1999.90;999.90;;;;;;;13.33;49.38;94942.03;4981538;28;20034;-72
2022/05/29 01:45:53;;;;;;;1999.90;999.90;;;;;;;13.39;49.82;94955.97;4989364;28;20031;-72
2022/05/29 01:48:27;;;;;;;1999.90;999.90;;;;;;;13.37;49.58;94953.63;4989453;28;20157;-71
2022/05/29 01:50:58;;;;;;;1999.90;999.90;;;;;;;13.33;49.68;94947.38;4991203;28;20435;-71
2022/05/29 01:53:32;;;;;;;1999.90;999.90;;;;;;;13.12;49.90;94917.16;4993786;28;20041;-72
2022/05/29 01:56:05;;;;;;;1999.90;999.90;;;;;;;13.24;49.45;94936.75;4992457;28;20153;-72
2022/05/29 01:58:39;;;;;;;1999.90;999.90;;;;;;;13.27;49.92;94936.09;4993133;28;20049;-73
2022/05/29 02:01:08;;;;;;;1999.90;999.90;;;;;;;13.24;49.69;94922.59;5012526;28;20044;-73
2022/05/29 02:03:39;;;;;;;1999.90;999.90;;;;;;;13.15;49.95;94913.84;5012995;28;20467;-72
2022/05/29 02:06:14;;;;;;;1999.90;999.90;;;;;;;13.08;49.75;94908.25;5011873;28;20017;-71
2022/05/29 02:09:06;;;;;;;1999.90;999.90;;;;;;;13.31;49.41;94914.06;5012649;28;20128;-71
2022/05/29 02:11:32;;;;;;;1999.90;999.90;;;;;;;13.25;49.14;94886.75;5008384;28;20026;-73
2022/05/29 02:14:07;;;;;;;1999.90;999.90;;;;;;;13.41;49.14;94906.47;4991482;28;20076;-71
2022/05/29 02:16:38;;;;;;;1999.90;999.90;;;;;;;13.39;48.90;94899.88;5012217;28;20018;-73
2022/05/29 02:19:08;;;;;;;1999.90;999.90;;;;;;;13.38;48.69;94895.63;5010137;28;20471;-72
2022/05/29 02:21:44;;;;;;;1999.90;999.90;;;;;;;13.35;48.70;94891.72;5011421;28;20037;-73
2022/05/29 02:24:15;;;;;;;1999.90;999.90;;;;;;;13.21;48.80;94875.16;5012419;28;20025;-72
2022/05/29 02:27:14;;;;;;;1999.90;999.90;;;;;;;13.17;48.73;94874.25;5011274;28;20049;-73
2022/05/29 02:29:40;;;;;;;1999.90;999.90;;;;;;;13.07;48.92;94864.75;4983398;28;20402;-73
2022/05/29 02:32:46;;;;;;;1999.90;999.90;;;;;;;12.73;49.85;94879.88;5012956;28;20026;-71
2022/05/29 02:35:18;;;;;;;1999.90;999.90;;;;;;;12.70;50.09;94885.09;4998273;28;20085;-72
2022/05/29 02:37:53;;;;;;;1999.90;999.90;;;;;;;12.73;50.16;94889.78;5011211;28;20079;-72
2022/05/29 02:40:19;;;;;;;1999.90;999.90;;;;;;;12.71;50.01;94884.75;5010846;28;20030;-71
2022/05/29 02:42:59;;;;;;;1999.90;999.90;;;;;;;12.60;50.36;94875.56;5012256;28;20026;-71
2022/05/29 02:45:39;;;;;;;1999.90;999.90;;;;;;;12.73;50.60;94881.75;4998116;28;20038;-72
2022/05/29 02:48:19;;;;;;;1999.90;999.90;;;;;;;12.70;50.63;94879.75;4992052;28;20033;-72
2022/05/29 02:51:06;;;;;;;1999.90;999.90;;;;;;;12.61;50.08;94852.34;4992707;28;20041;-72
2022/05/29 02:53:33;;;;;;;1999.90;999.90;;;;;;;12.70;50.65;94864.53;4992614;28;20441;-71
2022/05/29 02:55:59;;;;;;;1999.90;999.90;;;;;;;12.65;50.54;94859.38;4991178;28;20541;-73
2022/05/29 02:58:29;;;;;;;1999.90;999.90;;;;;;;12.60;50.22;94856.13;4989413;28;20030;-71
2022/05/29 03:01:16;;;;;;;1999.90;999.90;;;;;;;12.56;50.53;94850.63;4992013;28;20042;-72
2022/05/29 03:04:00;;;;;;;1999.90;999.90;;;;;;;12.57;50.24;94843.41;4992600;28;20229;-72
2022/05/29 03:06:50;;;;;;;1999.90;999.90;;;;;;;12.54;50.35;94842.19;4992769;28;20034;-71
2022/05/29 03:09:27;;;;;;;1999.90;999.90;;;;;;;12.55;50.44;94848.28;4992233;28;20027;-71
2022/05/29 03:11:53;;;;;;;1999.90;999.90;;;;;;;12.36;50.45;94814.81;4992436;28;20026;-73
2022/05/29 03:14:30;;;;;;;1999.90;999.90;;;;;;;12.51;50.69;94834.03;4990454;28;20519;-72
2022/05/29 03:17:09;;;;;;;1999.90;999.90;;;;;;;12.56;50.49;94844.53;5012020;28;20045;-72
2022/05/29 03:19:50;;;;;;;1999.90;999.90;;;;;;;12.60;50.49;94848.09;5010140;28;20646;-72
2022/05/29 03:22:27;;;;;;;1999.90;999.90;;;;;;;12.39;50.42;94810.72;5010279;28;20041;-71
2022/05/29 03:25:08;;;;;;;1999.90;999.90;;;;;;;12.28;50.51;94793.50;5011678;28;20025;-71
2022/05/29 03:27:43;;;;;;;1999.90;999.90;;;;;;;12.21;50.59;94791.38;5004986;28;20634;-72
2022/05/29 03:30:35;;;;;;;1999.90;999.90;;;;;;;11.81;51.10;94737.59;4990293;28;20034;-71
2022/05/29 03:33:04;;;;;;;1999.90;999.90;;;;;;;12.29;51.28;94819.09;4991753;28;20030;-72
2022/05/29 03:35:36;;;;;;;1999.90;999.90;;;;;;;12.41;50.88;94829.84;4990980;28;20037;-72
2022/05/29 03:38:04;;;;;;;1999.90;999.90;;;;;;;10.83;54.88;94814.56;4989840;28;20411;-72
2022/05/29 03:40:32;;;;;;;1999.90;999.90;;;;;;;10.79;56.11;94807.50;4990562;28;20440;-71
2022/05/29 03:42:57;;;;;;;1999.90;999.90;;;;;;;11.30;54.50;94833.31;4989603;28;20041;-71
2022/05/29 03:45:23;;;;;;;1999.90;999.90;;;;;;;11.24;54.38;94805.31;4991603;28;20035;-71
2022/05/29 03:47:48;;;;;;;1999.90;999.90;;;;;;;11.92;52.51;94824.88;4991511;28;20030;-71
2022/05/29 03:50:17;;;;;;;1999.90;999.90;;;;;;;12.06;52.45;94816.69;4991192;28;20022;-72
2022/05/29 03:52:44;;;;;;;1999.90;999.90;;;;;;;12.53;51.67;94839.81;4991413;28;20026;-74
2022/05/29 03:55:10;;;;;;;1999.90;999.90;;;;;;;12.67;51.20;94835.03;4991375;28;20034;-72
2022/05/29 03:57:35;;;;;;;1999.90;999.90;;;;;;;12.43;51.51;94817.75;4990441;28;20054;-72
2022/05/29 04:00:01;;;;;;;1999.90;999.90;;;;;;;12.34;51.92;94827.69;4990899;28;20081;-72
2022/05/29 04:02:27;;;;;;;1999.90;999.90;;;;;;;12.66;51.46;94802.22;5006339;28;20038;-72
2022/05/29 04:04:52;;;;;;;1999.90;999.90;;;;;;;12.90;50.13;94787.47;5005652;28;20113;-72
2022/05/29 04:07:17;;;;;;;1999.90;999.90;;;;;;;13.74;48.92;94806.78;4991245;28;20081;-73
2022/05/29 04:12:27;;;;;;;1999.90;999.90;;;;;;;14.74;46.75;94816.06;4990181;28;20053;-72
2022/05/29 04:14:52;;;;;;;1999.90;999.90;;;;;;;15.11;45.74;94799.91;4990154;28;20026;-72
2022/05/29 04:17:19;;;;;;;1999.90;999.90;;;;;;;15.54;45.00;94825.94;5009873;28;20061;-73
2022/05/29 04:19:45;;;;;;;1999.90;999.90;;;;;;;15.92;44.47;94819.31;5010239;28;20033;-71
2022/05/29 04:22:17;;;;;;;1999.90;999.90;;;;;;;16.15;44.24;94807.97;5009074;28;20026;-72
2022/05/29 04:24:43;;;;;;;1999.90;999.90;;;;;;;16.28;42.76;94796.78;5009860;28;20371;-72
2022/05/29 04:27:11;;;;;;;1999.90;999.90;;;;;;;16.61;42.81;94798.28;4990307;28;20018;-72
2022/05/29 04:29:37;;;;;;;1999.90;999.90;;;;;;;16.93;42.34;94806.28;4990452;28;20026;-72
2022/05/29 04:34:47;;;;;;;1999.90;999.90;;;;;;;17.27;41.28;94788.56;5010804;28;20049;-72
2022/05/29 04:37:12;;;;;;;1999.90;999.90;;;;;;;17.37;40.51;94769.94;5010383;28;20014;-73
2022/05/29 04:39:38;;;;;;;1999.90;999.90;;;;;;;17.62;40.20;94773.06;5000902;28;20130;-73
2022/05/29 04:42:04;;;;;;;1999.90;999.90;;;;;;;17.77;40.16;94773.38;4990483;28;20073;-72
2022/05/29 04:44:31;;;;;;;1999.90;999.90;;;;;;;18.08;39.62;94775.81;4990896;28;20502;-73
2022/05/29 04:46:59;;;;;;;1999.90;999.90;;;;;;;18.07;39.45;94782.34;5004631;28;20022;-72
2022/05/29 04:49:25;;;;;;;1999.90;999.90;;;;;;;18.17;38.55;94762.09;4971267;28;20110;-73
2022/05/29 04:51:50;;;;;;;1999.90;999.90;;;;;;;18.41;38.91;94774.38;4971084;28;20119;-72
2022/05/29 04:54:16;;;;;;;1999.90;999.90;;;;;;;18.42;38.91;94765.16;4974903;28;20471;-72
2022/05/29 04:56:41;;;;;;;1999.90;999.90;;;;;;;18.60;38.88;94768.88;4990522;28;20027;-71
2022/05/29 04:59:07;;;;;;;1999.90;999.90;;;;;;;18.90;38.75;94789.72;4990309;28;20045;-71
2022/05/29 05:01:32;;;;;;;1999.90;999.90;;;;;;;19.00;38.67;94789.09;4990396;28;20030;-72
2022/05/29 05:03:58;;;;;;;1999.90;999.90;;;;;;;19.08;37.65;94784.53;4988938;28;20061;-71
2022/05/29 05:06:23;;;;;;;1999.90;999.90;;;;;;;18.79;37.40;94772.63;4990283;28;20065;-72
2022/05/29 05:08:49;;;;;;;1999.90;999.90;;;;;;;18.81;37.53;94781.13;4989172;28;20097;-71
2022/05/29 05:11:14;;;;;;;1999.90;999.90;;;;;;;18.29;38.19;94788.03;4989147;28;20106;-71
2022/05/29 05:13:40;;;;;;;1999.90;999.90;;;;;;;17.15;40.40;94795.63;4990480;28;20486;-71
2022/05/29 05:16:05;;;;;;;1999.90;999.90;;;;;;;15.47;43.97;94804.31;4990320;28;20040;-71
2022/05/29 05:18:31;;;;;;;1999.90;999.90;;;;;;;14.56;46.55;94779.97;4989836;28;20471;-70
2022/05/29 05:20:57;;;;;;;1999.90;999.90;;;;;;;15.80;44.84;94795.22;4990489;28;20019;-73
2022/05/29 05:23:22;;;;;;;1999.90;999.90;;;;;;;15.25;45.91;94821.75;4989289;28;20023;-72
2022/05/29 05:25:47;;;;;;;1999.90;999.90;;;;;;;14.71;47.46;94818.63;4991283;28;20029;-73
2022/05/29 05:28:13;;;;;;;1999.90;999.90;;;;;;;15.79;44.99;94794.44;4993461;28;20027;-73
2022/05/29 05:30:38;;;;;;;1999.90;999.90;;;;;;;16.25;44.52;94813.56;4992789;28;20105;-70
2022/05/29 05:33:04;;;;;;;1999.90;999.90;;;;;;;15.65;44.94;94790.63;4994039;28;20371;-70
2022/05/29 05:35:29;;;;;;;1999.90;999.90;;;;;;;15.62;45.86;94799.34;4993844;28;20018;-74
2022/05/29 05:37:56;;;;;;;1999.90;999.90;;;;;;;15.37;46.39;94804.81;4992963;28;20035;-72
2022/05/29 05:40:21;;;;;;;1999.90;999.90;;;;;;;14.98;48.03;94820.56;4993560;28;20463;-72
2022/05/29 05:42:47;;;;;;;1999.90;999.90;;;;;;;14.98;47.87;94799.16;4993978;28;20073;-71
2022/05/29 05:45:13;;;;;;;1999.90;999.90;;;;;;;14.87;48.76;94830.19;4992322;28;20022;-72
2022/05/29 05:47:39;;;;;;;1999.90;999.90;;;;;;;15.52;47.29;94822.06;5009248;28;20038;-70
2022/05/29 05:50:06;;;;;;;1999.90;999.90;;;;;;;16.02;46.17;94824.16;5012689;28;20378;-72
2022/05/29 05:52:31;;;;;;;1999.90;999.90;;;;;;;16.15;46.17;94824.84;5002735;28;20041;-73
2022/05/29 05:54:56;;;;;;;1999.90;999.90;;;;;;;16.53;45.01;94796.56;4992402;28;20030;-73
2022/05/29 05:57:22;;;;;;;1999.90;999.90;;;;;;;16.80;43.99;94814.47;4993427;28;20353;-71
2022/05/29 05:59:47;;;;;;;1999.90;999.90;;;;;;;16.50;43.27;94790.00;4992381;28;20026;-71
2022/05/29 06:02:14;;;;;;;1999.90;999.90;;;;;;;17.01;41.77;94816.84;5003801;28;20109;-71
2022/05/29 06:04:41;;;;;;;1999.90;999.90;;;;;;;17.33;40.50;94819.38;5015836;22;20128;-71
2022/05/29 06:07:07;;;;;;;1999.90;999.90;;;;;;;17.02;38.97;94807.63;5004631;28;20487;-72
2022/05/29 06:09:33;;;;;;;1999.90;999.90;;;;;;;17.14;38.94;94820.94;4991845;28;20057;-73
2022/05/29 06:11:59;;;;;;;1999.90;999.90;;;;;;;17.11;38.07;94802.84;4993428;28;20034;-73
2022/05/29 06:14:25;;;;;;;1999.90;999.90;;;;;;;17.18;37.87;94809.47;4993439;28;20034;-72
2022/05/29 06:16:50;;;;;;;1999.90;999.90;;;;;;;16.78;38.79;94799.81;4993274;28;20514;-72
2022/05/29 06:19:16;;;;;;;1999.90;999.90;;;;;;;17.04;38.27;94813.44;5012728;28;20029;-73
2022/05/29 06:21:41;;;;;;;1999.90;999.90;;;;;;;16.79;38.80;94822.88;5007128;28;20037;-72
2022/05/29 06:24:07;;;;;;;1999.90;999.90;;;;;;;17.13;38.69;94816.69;4991556;28;20498;-72
2022/05/29 06:26:32;;;;;;;1999.90;999.90;;;;;;;17.32;38.09;94777.50;5010669;28;20398;-72
2022/05/29 06:28:58;;;;;;;1999.90;999.90;;;;;;;17.61;37.38;94806.50;4994021;28;20034;-73
2022/05/29 06:31:24;;;;;;;1999.90;999.90;;;;;;;17.79;37.95;94811.44;4992092;28;20092;-70
2022/05/29 06:33:50;;;;;;;1999.90;999.90;;;;;;;17.54;37.71;94795.59;4996916;28;20552;-70
2022/05/29 06:36:18;;;;;;;1999.90;999.90;;;;;;;17.85;38.13;94800.00;4991590;28;20105;-70
2022/05/29 06:38:45;;;;;;;1999.90;999.90;;;;;;;16.54;39.88;94798.13;4991301;28;20026;-70
2022/05/29 06:41:13;;;;;;;1999.90;999.90;;;;;;;15.76;41.95;94802.41;4991616;28;20023;-68
2022/05/29 06:43:39;;;;;;;1999.90;999.90;;;;;;;16.95;39.62;94796.75;4992799;28;20072;-77
2022/05/29 06:46:06;;;;;;;1999.90;999.90;;;;;;;17.33;39.01;94787.91;4992610;28;20073;-74
2022/05/29 06:48:33;;;;;;;1999.90;999.90;;;;;;;17.80;37.98;94796.84;5003725;28;20084;-73
2022/05/29 06:51:03;;;;;;;1999.90;999.90;;;;;;;17.23;38.66;94785.78;4971898;28;20479;-68
2022/05/29 06:53:29;;;;;;;1999.90;999.90;;;;;;;17.43;38.71;94783.84;4990828;28;20104;-68
2022/05/29 06:55:55;;;;;;;1999.90;999.90;;;;;;;17.60;38.44;94796.06;4992447;28;20082;-69
2022/05/29 06:58:22;;;;;;;1999.90;999.90;;;;;;;17.85;37.92;94805.41;4992324;28;20025;-75
2022/05/29 07:08:59;;;;;;;1999.90;999.90;;;;;;;18.26;37.01;94783.38;4972636;28;20842;-74
2022/05/29 07:11:28;;;;;;;1999.90;999.90;;;;;;;18.21;37.52;94781.75;4987824;28;20062;-70
2022/05/29 07:13:54;;;;;;;1999.90;999.90;;;;;;;18.58;37.13;94789.22;4971493;28;20462;-69
2022/05/29 07:16:20;;;;;;;1999.90;999.90;;;;;;;18.78;36.15;94798.00;4986490;28;20084;-69
2022/05/29 07:18:48;;;;;;;1999.90;999.90;;;;;;;18.96;35.72;94802.50;5003055;28;20117;-70
2022/05/29 07:21:13;;;;;;;1999.90;999.90;;;;;;;19.12;35.65;94780.75;5009258;28;20079;-69
2022/05/29 07:23:38;;;;;;;1999.90;999.90;;;;;;;19.11;35.06;94775.72;4988596;28;20030;-70
2022/05/29 07:26:05;;;;;;;1999.90;999.90;;;;;;;18.96;34.96;94783.63;4990164;28;20077;-72
2022/05/29 07:28:30;;;;;;;1999.90;999.90;;;;;;;18.60;35.51;94787.75;4991121;28;20026;-67
2022/05/29 07:30:56;;;;;;;1999.90;999.90;;;;;;;18.69;36.48;94799.06;5003081;28;20498;-70
2022/05/29 07:33:25;;;;;;;1999.90;999.90;;;;;;;18.92;35.83;94793.59;4991853;28;20034;-69
2022/05/29 07:35:50;;;;;;;1999.90;999.90;;;;;;;18.98;35.40;94777.88;4994309;28;20030;-70
2022/05/29 07:38:16;;;;;;;1999.90;999.90;;;;;;;19.13;34.56;94803.88;4989297;28;20042;-70
2022/05/29 07:40:41;;;;;;;1999.90;999.90;;;;;;;19.55;33.67;94802.03;4991694;28;20018;-71
2022/05/29 07:43:19;;;;;;;1999.90;999.90;;;;;;;19.77;33.17;94787.66;4990917;28;20034;-70
2022/05/29 07:45:50;;;;;;;1999.90;999.90;;;;;;;20.30;32.65;94783.88;4991606;28;20046;-70
2022/05/29 07:48:17;;;;;;;1999.90;999.90;;;;;;;19.94;32.22;94778.16;4990461;28;20031;-70
2022/05/29 07:50:43;;;;;;;1999.90;999.90;;;;;;;19.56;32.83;94798.97;4991199;28;20476;-70
2022/05/29 07:53:09;;;;;;;1999.90;999.90;;;;;;;19.42;33.87;94796.91;4991722;28;20030;-72
2022/05/29 07:55:37;;;;;;;1999.90;999.90;;;;;;;19.54;33.16;94785.06;4989493;28;20158;-71
2022/05/29 07:58:06;;;;;;;1999.90;999.90;;;;;;;19.81;32.93;94782.28;5006558;28;20035;-72
2022/05/29 08:00:33;;;;;;;1999.90;999.90;;;;;;;19.36;33.23;94787.59;4989885;28;20033;-72
2022/05/29 08:02:58;;;;;;;1999.90;999.90;;;;;;;18.50;35.31;94801.06;4989899;28;20030;-70
2022/05/29 08:05:24;;;;;;;1999.90;999.90;;;;;;;19.33;34.40;94811.81;4989586;28;20077;-72
2022/05/29 08:07:50;;;;;;;1999.90;999.90;;;;;;;19.40;34.06;94815.38;5006462;28;20408;-68
2022/05/29 08:10:18;;;;;;;1999.90;999.90;;;;;;;19.67;33.43;94805.28;4987362;28;20026;-70
2022/05/29 08:12:43;;;;;;;1999.90;999.90;;;;;;;19.79;33.36;94776.47;4991567;28;20064;-69
2022/05/29 08:15:10;;;;;;;1999.90;999.90;;;;;;;20.08;33.33;94799.13;4990972;28;20022;-68
2022/05/29 08:17:36;;;;;;;1999.90;999.90;;;;;;;20.00;33.09;94790.94;4989398;28;20053;-70
2022/05/29 08:20:06;;;;;;;1999.90;999.90;;;;;;;19.95;33.20;94788.59;4988737;28;20098;-69
2022/05/29 08:22:31;;;;;;;1999.90;999.90;;;;;;;20.02;32.81;94812.19;4988969;28;20030;-68
2022/05/29 08:30:38;;;;;;;1999.90;999.90;;;;;;;20.19;32.78;94803.47;4990771;28;20132;-69
2022/05/29 08:33:05;;;;;;;1999.90;999.90;;;;;;;20.41;33.25;94804.41;4991193;28;20037;-68
2022/05/29 08:35:32;;;;;;;1999.90;999.90;;;;;;;20.58;32.82;94789.50;4990365;28;20038;-69
2022/05/29 08:37:59;;;;;;;1999.90;999.90;;;;;;;20.49;32.82;94778.25;4990562;28;20030;-70
2022/05/29 08:40:25;;;;;;;1999.90;999.90;;;;;;;20.71;32.72;94781.84;4996584;28;20065;-71
2022/05/29 08:42:51;;;;;;;1999.90;999.90;;;;;;;20.76;32.58;94776.88;4989717;28;20120;-67
2022/05/29 08:45:18;;;;;;;1999.90;999.90;;;;;;;21.19;32.55;94781.69;4991371;28;20172;-70
2022/05/29 08:47:46;;;;;;;1999.90;999.90;;;;;;;21.14;31.46;94790.19;5024261;28;20058;-69
2022/05/29 08:50:23;;;;;;;1999.90;999.90;;;;;;;21.41;31.62;94793.44;4999442;28;20030;-71
2022/05/29 08:52:55;;;;;;;1999.90;999.90;;;;;;;21.42;30.79;94797.69;4999407;28;20033;-69
2022/05/29 08:55:47;;;;;;;1999.90;999.90;;;;;;;21.75;30.86;94807.44;4994753;28;20160;-69
2022/05/29 08:58:38;;;;;;;1999.90;999.90;;;;;;;22.02;30.61;94810.59;4989718;28;20531;-69
2022/05/29 09:01:29;;;;;;;1999.90;999.90;;;;;;;22.02;29.84;94805.19;4993817;28;20113;-68
2022/05/29 09:03:59;;;;;;;1999.90;999.90;;;;;;;22.56;29.77;94787.00;4993351;28;20053;-69
2022/05/29 09:06:49;;;;;;;1999.90;999.90;;;;;;;22.76;29.06;94777.28;4994779;28;20022;-69
2022/05/29 09:09:28;;;;;;;1999.90;999.90;;;;;;;23.19;28.63;94785.34;4989170;28;20562;-69
2022/05/29 09:11:57;;;;;;;1999.90;999.90;;;;;;;23.96;28.31;94784.59;4994263;28;20391;-68
2022/05/29 09:14:50;;;;;;;1999.90;999.90;;;;;;;24.87;27.05;94787.72;4993725;28;20073;-65
2022/05/29 09:17:31;;;;;;;1999.90;999.90;;;;;;;25.31;26.00;94788.84;4992449;28;20027;-66
2022/05/29 09:20:06;;;;;;;1999.90;999.90;;;;;;;23.68;27.72;94780.09;4992568;28;20027;-65
2022/05/29 09:22:39;;;;;;;1999.90;999.90;;;;;;;24.26;27.37;94773.91;4994617;28;20030;-65
2022/05/29 09:25:13;;;;;;;1999.90;999.90;;;;;;;24.71;26.42;94768.47;4993034;28;20117;-69
2022/05/29 09:27:44;;;;;;;1999.90;999.90;;;;;;;24.07;26.76;94779.88;4994435;28;20033;-68
2022/05/29 09:30:10;;;;;;;1999.90;999.90;;;;;;;23.84;27.31;94775.72;4992676;28;20412;-69
2022/05/29 09:32:46;;;;;;;1999.90;999.90;;;;;;;23.65;25.99;94775.47;4993902;28;20069;-68
2022/05/29 09:35:19;;;;;;;1999.90;999.90;;;;;;;23.53;26.59;94773.94;4993124;28;20795;-68
2022/05/29 09:38:06;;;;;;;1999.90;999.90;;;;;;;23.41;26.84;94783.31;5006894;28;20054;-68
2022/05/29 09:40:46;;;;;;;1999.90;999.90;;;;;;;23.81;26.34;94790.13;5013800;28;20040;-69
2022/05/29 09:43:22;;;;;;;1999.90;999.90;;;;;;;24.01;26.99;94784.19;5013694;28;20822;-68
2022/05/29 09:45:47;;;;;;;1999.90;999.90;;;;;;;24.33;27.05;94784.72;4991129;28;20058;-70
2022/05/29 09:51:15;;;;;;;1999.90;999.90;;;;;;;24.09;26.36;94782.94;4974657;28;20045;-69
2022/05/29 09:53:49;;;;;;;1999.90;999.90;;;;;;;24.13;25.83;94789.13;4978408;28;20026;-68
2022/05/29 09:56:27;;;;;;;1999.90;999.90;;;;;;;24.02;26.04;94789.22;4993635;28;20026;-68
2022/05/29 09:58:57;;;;;;;1999.90;999.90;;;;;;;23.56;25.89;94784.03;4992342;28;20482;-69
2022/05/29 10:01:50;;;;;;;1999.90;999.90;;;;;;;23.00;26.87;94783.09;4988201;28;20022;-68
2022/05/29 10:04:28;;;;;;;1999.90;999.90;;;;;;;22.94;27.64;94776.53;4990779;28;20038;-68
2022/05/29 10:06:58;;;;;;;1999.90;999.90;;;;;;;23.02;26.79;94767.94;4992540;28;20022;-69
2022/05/29 10:09:26;;;;;;;1999.90;999.90;;;;;;;23.38;27.02;94772.47;4993379;28;20029;-69
2022/05/29 10:12:13;;;;;;;1999.90;999.90;;;;;;;23.55;27.44;94777.06;4981192;28;20035;-67
2022/05/29 10:14:42;;;;;;;1999.90;999.90;;;;;;;23.02;28.47;94767.94;4983041;28;20026;-66
2022/05/29 10:17:13;;;;;;;1999.90;999.90;;;;;;;23.35;27.66;94763.97;4990540;28;20057;-68
2022/05/29 10:19:42;;;;;;;1999.90;999.90;;;;;;;23.84;27.33;94764.88;4992152;28;20034;-69
2022/05/29 10:22:33;;;;;;;1999.90;999.90;;;;;;;23.33;27.71;94752.72;4992341;28;20034;-70
2022/05/29 10:24:59;;;;;;;1999.90;999.90;;;;;;;23.16;27.73;94755.50;4985460;28;20042;-69
2022/05/29 10:27:32;;;;;;;1999.90;999.90;;;;;;;23.35;27.76;94747.69;4991686;28;20030;-70
2022/05/29 10:30:07;;;;;;;1999.90;999.90;;;;;;;23.11;28.59;94726.84;4972010;28;20035;-69
2022/05/29 10:32:36;;;;;;;1999.90;999.90;;;;;;;21.31;30.00;94761.69;4974442;28;20491;-69
2022/05/29 10:35:17;;;;;;;1999.90;999.90;;;;;;;18.54;35.42;94756.88;4992780;28;20027;-69
2022/05/29 10:37:44;;;;;;;1999.90;999.90;;;;;;;20.86;32.17;94752.97;4990407;28;20026;-68
2022/05/29 10:40:13;;;;;;;1999.90;999.90;;;;;;;21.16;31.53;94744.63;4985458;28;20510;-68
2022/05/29 10:42:50;;;;;;;1999.90;999.90;;;;;;;20.43;32.07;94758.88;4978418;28;20038;-67
2022/05/29 10:45:41;;;;;;;1999.90;999.90;;;;;;;19.92;33.88;94764.28;4990617;28;20026;-72
2022/05/29 10:48:34;;;;;;;1999.90;999.90;;;;;;;18.14;36.18;94771.66;4992684;28;20399;-72
2022/05/29 10:51:23;;;;;;;1999.90;999.90;;;;;;;17.46;36.27;94769.72;4992102;28;20058;-68
2022/05/29 10:54:01;;;;;;;1999.90;999.90;;;;;;;15.82;37.94;94779.59;4990738;28;20027;-68
2022/05/29 10:56:48;;;;;;;1999.90;999.90;;;;;;;15.51;39.25;94786.44;4992680;28;20034;-68
2022/05/29 11:00:01;;;;;;;1999.90;999.90;;;;;;;15.27;42.79;94791.91;4990607;28;20115;-69
2022/05/29 11:05:40;;;;;;;1999.90;999.90;;;;;;;12.70;57.29;94807.69;4992428;28;20133;-68
2022/05/29 11:08:30;;;;;;;1999.90;999.90;;;;;;;12.38;61.95;94825.16;4989836;28;20038;-68
2022/05/29 11:11:15;;;;;;;1999.90;999.90;;;;;;;12.19;64.05;94821.03;4990778;28;20117;-68
2022/05/29 11:14:19;;;;;;;1999.90;999.90;;;;;;;13.25;63.98;94811.97;4992529;28;20029;-68
2022/05/29 11:17:15;;;;;;;1999.90;999.90;;;;;;;12.84;62.95;94826.88;4990044;28;20030;-68
2022/05/29 11:19:54;;;;;;;1999.90;999.90;;;;;;;13.65;63.72;94824.81;5009803;28;20026;-68
2022/05/29 11:22:28;;;;;;;1999.90;999.90;;;;;;;13.73;62.89;94829.28;4989798;28;20042;-68
2022/05/29 11:25:24;;;;;;;1999.90;999.90;;;;;;;14.59;63.43;94840.84;4990659;28;20073;-67
2022/05/29 11:28:04;;;;;;;1999.90;999.90;;;;;;;14.81;61.13;94831.56;4991010;28;20088;-68
2022/05/29 11:31:06;;;;;;;1999.90;999.90;;;;;;;15.31;61.21;94849.06;4990978;28;20471;-68
2022/05/29 11:33:38;;;;;;;1999.90;999.90;;;;;;;15.63;61.58;94847.28;4972327;28;20047;-69
2022/05/29 11:36:23;;;;;;;1999.90;999.90;;;;;;;15.74;60.92;94826.09;4993685;28;20097;-68
2022/05/29 11:39:04;;;;;;;1999.90;999.90;;;;;;;16.17;61.32;94844.03;4987292;28;20506;-68
2022/05/29 11:41:43;;;;;;;1999.90;999.90;;;;;;;16.60;62.00;94829.72;4991970;28;20538;-68